Terminal Aerodrome Forecast
Issued by NWS

Home | Current Version | Previous Version | Text Only | Print | Product List | Glossary On
Versions: 1 2 3 4 5 6 7 8 9 10 11 12 13 14 15 16 17 18 19 20 21 22 23 24 25
369
FTUS42 KMLB 211000 AAB
TAFSFB
TAF AMD
KSFB 211000Z 2110/2206 VRB02KT P6SM BKN250
      TEMPO 2110/2113 3SM BR
     FM211400 11011KT P6SM SCT040 BKN250
     FM220300 13004KT P6SM FEW040 BKN250=

USA.gov is the U.S. government's official web portal to all federal, state and local government web resources and services.